createdAt,value
2019-03-30T00:00:09.077Z,9.46
2019-03-30T00:01:09.036Z,9.43
2019-03-30T00:02:09.018Z,9.42
2019-03-30T00:03:09.051Z,9.40
2019-03-30T00:04:08.998Z,9.38
2019-03-30T00:05:08.991Z,9.33
2019-03-30T00:06:08.993Z,9.32
2019-03-30T00:07:08.968Z,9.29
2019-03-30T00:08:08.948Z,9.26
2019-03-30T00:09:08.984Z,9.23
2019-03-30T00:10:08.928Z,9.23
2019-03-30T00:11:08.948Z,9.21
2019-03-30T00:12:08.918Z,9.18
2019-03-30T00:13:08.908Z,9.17
2019-03-30T00:14:08.887Z,9.13
2019-03-30T00:15:08.908Z,9.10
2019-03-30T00:16:08.884Z,9.08
2019-03-30T00:17:08.870Z,9.04
2019-03-30T00:18:08.861Z,9.02
2019-03-30T00:19:08.828Z,8.98
2019-03-30T00:20:08.890Z,8.95
2019-03-30T00:21:08.809Z,8.92
2019-03-30T00:22:08.799Z,8.89
2019-03-30T00:23:08.847Z,8.86
2019-03-30T00:24:08.784Z,8.84
2019-03-30T00:25:08.767Z,8.81
2019-03-30T00:26:08.781Z,8.80
2019-03-30T00:27:08.749Z,8.77
2019-03-30T00:28:08.777Z,8.77
2019-03-30T00:29:08.721Z,8.76
2019-03-30T00:30:08.748Z,8.73
2019-03-30T00:31:08.698Z,8.71
2019-03-30T00:32:08.728Z,8.71
2019-03-30T00:33:08.688Z,8.68
2019-03-30T00:34:08.688Z,8.65
2019-03-30T00:35:08.657Z,8.63
2019-03-30T00:36:08.657Z,8.62
2019-03-30T00:37:08.700Z,8.59
2019-03-30T00:38:08.658Z,8.59
2019-03-30T00:39:08.609Z,8.59
2019-03-30T00:40:08.607Z,8.59
2019-03-30T00:41:08.597Z,8.58
2019-03-30T00:42:08.629Z,8.56
2019-03-30T00:43:08.567Z,8.55
2019-03-30T00:44:08.567Z,8.55
2019-03-30T00:45:08.564Z,8.55
2019-03-30T00:46:08.540Z,8.53
2019-03-30T00:47:08.527Z,8.52
2019-03-30T00:48:08.600Z,8.48
2019-03-30T00:49:08.517Z,8.48
2019-03-30T00:50:08.497Z,8.48
2019-03-30T00:51:08.495Z,8.50
2019-03-30T00:52:08.478Z,8.52
2019-03-30T00:53:08.468Z,8.52
2019-03-30T00:54:08.487Z,8.48
2019-03-30T00:55:08.447Z,8.47
2019-03-30T00:56:08.427Z,8.45
2019-03-30T00:57:08.469Z,8.44
2019-03-30T00:58:08.407Z,8.41
2019-03-30T00:59:08.439Z,8.37
2019-03-30T01:00:08.378Z,8.36
2019-03-30T01:01:08.376Z,8.33
2019-03-30T01:02:08.368Z,8.29
2019-03-30T01:03:08.397Z,8.26
2019-03-30T01:04:08.348Z,8.25
2019-03-30T01:05:08.327Z,8.25
2019-03-30T01:06:08.327Z,8.22
2019-03-30T01:07:08.307Z,8.20
2019-03-30T01:08:08.318Z,8.20
2019-03-30T01:09:08.317Z,8.19
2019-03-30T01:10:08.311Z,8.18
2019-03-30T01:11:08.289Z,8.16
2019-03-30T01:12:08.257Z,8.16
2019-03-30T01:13:08.297Z,8.12
2019-03-30T01:14:08.307Z,8.11
2019-03-30T01:15:08.230Z,8.07
2019-03-30T01:16:08.207Z,8.07
2019-03-30T01:17:08.208Z,8.07
2019-03-30T01:18:08.199Z,8.04
2019-03-30T01:19:08.328Z,8.02
2019-03-30T01:20:08.249Z,8.02
2019-03-30T01:21:08.157Z,8.02
2019-03-30T01:22:08.146Z,8.01
2019-03-30T01:23:08.136Z,8.00
2019-03-30T01:24:08.128Z,7.98
2019-03-30T01:25:08.110Z,7.97
2019-03-30T01:26:08.177Z,7.95
2019-03-30T01:27:08.096Z,7.93
2019-03-30T01:28:08.097Z,7.92
2019-03-30T01:29:08.071Z,7.90
2019-03-30T01:30:22.218Z,7.90
2019-03-30T01:31:09.086Z,7.89
2019-03-30T01:32:08.039Z,7.87
2019-03-30T01:33:08.028Z,7.87
2019-03-30T01:34:08.019Z,7.87
2019-03-30T01:35:08.055Z,7.86
2019-03-30T01:36:08.007Z,7.87
2019-03-30T01:37:08.002Z,7.87
2019-03-30T01:38:07.969Z,7.89
2019-03-30T01:39:08.007Z,7.87
2019-03-30T01:40:07.969Z,7.87
2019-03-30T01:41:07.945Z,7.87
2019-03-30T01:42:07.927Z,7.87
2019-03-30T01:43:07.931Z,7.89
2019-03-30T01:44:15.007Z,7.86
2019-03-30T01:45:07.922Z,7.89
2019-03-30T01:46:07.900Z,7.90
2019-03-30T01:47:07.879Z,7.89
2019-03-30T01:48:07.939Z,7.89
2019-03-30T01:49:07.854Z,7.87
2019-03-30T01:50:17.206Z,7.86
2019-03-30T01:51:08.826Z,7.85
2019-03-30T01:52:07.808Z,7.85
2019-03-30T01:53:07.807Z,7.85
2019-03-30T01:54:07.846Z,7.83
2019-03-30T01:55:07.778Z,7.83
2019-03-30T01:56:07.766Z,7.83
2019-03-30T01:57:07.766Z,7.83
2019-03-30T01:58:07.746Z,7.83
2019-03-30T01:59:07.746Z,7.87
2019-03-30T02:00:07.744Z,7.89
2019-03-30T02:01:07.716Z,7.90
2019-03-30T02:02:07.706Z,7.95
2019-03-30T02:03:07.706Z,7.97
2019-03-30T02:04:07.700Z,8.00
2019-03-30T02:05:07.668Z,8.00
2019-03-30T02:06:07.686Z,7.95
2019-03-30T02:07:07.706Z,7.93
2019-03-30T02:08:07.638Z,7.92
2019-03-30T02:09:07.665Z,7.92
2019-03-30T02:10:07.616Z,7.92
2019-03-30T02:11:07.607Z,7.92
2019-03-30T02:12:07.608Z,7.89
2019-03-30T02:13:07.589Z,7.87
2019-03-30T02:14:07.574Z,7.87
2019-03-30T02:15:07.649Z,7.86
2019-03-30T02:16:07.546Z,7.85
2019-03-30T02:17:07.591Z,7.83
2019-03-30T02:18:07.536Z,7.82
2019-03-30T02:19:07.515Z,7.80
2019-03-30T02:20:07.526Z,7.75
2019-03-30T02:21:07.535Z,7.75
2019-03-30T02:22:07.501Z,7.75
2019-03-30T02:23:07.476Z,7.75
2019-03-30T02:24:07.466Z,7.75
2019-03-30T02:25:07.455Z,7.72
2019-03-30T02:26:07.436Z,7.71
2019-03-30T02:27:07.466Z,7.71
2019-03-30T02:28:07.439Z,7.69
2019-03-30T02:29:07.465Z,7.68
2019-03-30T02:30:07.439Z,7.67
2019-03-30T02:31:07.429Z,7.64
2019-03-30T02:32:07.376Z,7.64
2019-03-30T02:33:07.367Z,7.64
2019-03-30T02:34:07.377Z,7.61
2019-03-30T02:35:07.349Z,7.60
2019-03-30T02:36:07.347Z,7.58
2019-03-30T02:37:07.382Z,7.55
2019-03-30T02:38:07.491Z,7.55
2019-03-30T02:39:07.307Z,7.52
2019-03-30T02:40:07.347Z,7.50
2019-03-30T02:41:07.287Z,7.49
2019-03-30T02:42:07.281Z,7.48
2019-03-30T02:43:07.286Z,7.46
2019-03-30T02:44:07.256Z,7.45
2019-03-30T02:45:07.246Z,7.43
2019-03-30T02:46:07.300Z,7.42
2019-03-30T02:47:07.247Z,7.39
2019-03-30T02:48:07.209Z,7.37
2019-03-30T02:49:07.196Z,7.37
2019-03-30T02:50:07.191Z,7.35
2019-03-30T02:51:07.183Z,7.35
2019-03-30T02:52:07.167Z,7.34
2019-03-30T02:53:07.250Z,7.32
2019-03-30T02:54:07.146Z,7.30
2019-03-30T02:55:07.131Z,7.28
2019-03-30T02:56:07.117Z,7.25
2019-03-30T02:57:07.120Z,7.25
2019-03-30T02:58:07.099Z,7.24
2019-03-30T02:59:07.136Z,7.21
2019-03-30T03:00:07.227Z,7.21
2019-03-30T03:01:07.067Z,7.20
2019-03-30T03:02:07.057Z,7.20
2019-03-30T03:03:07.047Z,7.20
2019-03-30T03:04:07.089Z,7.17
2019-03-30T03:05:07.027Z,7.20
2019-03-30T03:06:07.021Z,7.17
2019-03-30T03:07:07.004Z,7.16
2019-03-30T03:08:07.023Z,7.16
2019-03-30T03:09:06.975Z,7.16
2019-03-30T03:10:06.996Z,7.15
2019-03-30T03:11:06.960Z,7.13
2019-03-30T03:12:06.948Z,7.12
2019-03-30T03:13:06.926Z,7.09
2019-03-30T03:14:06.936Z,7.09
2019-03-30T03:15:06.909Z,7.07
2019-03-30T03:16:06.900Z,7.06
2019-03-30T03:17:06.900Z,7.06
2019-03-30T03:18:07.030Z,7.05
2019-03-30T03:19:06.906Z,7.05
2019-03-30T03:20:06.862Z,7.03
2019-03-30T03:21:08.539Z,7.02
2019-03-30T03:22:06.837Z,6.99
2019-03-30T03:23:06.823Z,6.99
2019-03-30T03:24:06.830Z,6.98
2019-03-30T03:25:06.836Z,6.97
2019-03-30T03:26:06.809Z,6.97
2019-03-30T03:27:06.792Z,6.95
2019-03-30T03:28:06.780Z,6.92
2019-03-30T03:29:06.765Z,6.92
2019-03-30T03:30:06.847Z,6.91
2019-03-30T03:31:06.753Z,6.88
2019-03-30T03:32:06.750Z,6.87
2019-03-30T03:33:06.740Z,6.84
2019-03-30T03:34:06.710Z,6.84
2019-03-30T03:35:06.705Z,6.81
2019-03-30T03:36:06.738Z,6.79
2019-03-30T03:37:06.700Z,6.79
2019-03-30T03:38:06.669Z,6.79
2019-03-30T03:39:06.750Z,6.77
2019-03-30T03:40:06.822Z,6.77
2019-03-30T03:41:06.758Z,6.77
2019-03-30T03:42:06.658Z,6.77
2019-03-30T03:43:06.708Z,6.77
2019-03-30T03:44:06.608Z,6.76
2019-03-30T03:45:06.772Z,6.76
2019-03-30T03:46:06.626Z,6.73
2019-03-30T03:47:06.566Z,6.71
2019-03-30T03:48:06.575Z,6.70
2019-03-30T03:49:06.552Z,6.67
2019-03-30T03:50:06.540Z,6.67
2019-03-30T03:51:24.466Z,6.64
2019-03-30T03:52:07.533Z,6.62
2019-03-30T03:53:06.508Z,6.61
2019-03-30T03:54:06.497Z,6.61
2019-03-30T03:55:06.491Z,6.58
2019-03-30T03:56:06.662Z,6.56
2019-03-30T03:57:06.495Z,6.58
2019-03-30T03:58:06.447Z,6.56
2019-03-30T03:59:06.436Z,6.55
2019-03-30T04:00:06.426Z,6.55
2019-03-30T04:01:06.436Z,6.54
2019-03-30T04:02:06.455Z,6.51
2019-03-30T04:03:06.395Z,6.48
2019-03-30T04:04:06.399Z,6.46
2019-03-30T04:05:06.378Z,6.43
2019-03-30T04:06:06.385Z,6.43
2019-03-30T04:07:06.345Z,6.41
2019-03-30T04:08:06.375Z,6.40
2019-03-30T04:09:06.358Z,6.40
2019-03-30T04:10:06.332Z,6.38
2019-03-30T04:11:06.305Z,6.38
2019-03-30T04:12:06.367Z,6.37
2019-03-30T04:13:07.170Z,6.37
2019-03-30T04:14:06.288Z,6.36
2019-03-30T04:15:06.301Z,6.34
2019-03-30T04:16:06.259Z,6.34
2019-03-30T04:17:06.246Z,6.31
2019-03-30T04:18:06.248Z,6.28
2019-03-30T04:19:06.278Z,6.30
2019-03-30T04:20:06.238Z,6.28
2019-03-30T04:21:06.205Z,6.28
2019-03-30T04:22:06.198Z,6.28
2019-03-30T04:23:06.228Z,6.28
2019-03-30T04:24:06.186Z,6.27
2019-03-30T04:25:06.182Z,6.22
2019-03-30T04:26:06.146Z,6.21
2019-03-30T04:27:06.135Z,6.18
2019-03-30T04:28:06.276Z,6.18
2019-03-30T04:29:06.108Z,6.18
2019-03-30T04:30:06.105Z,6.17
2019-03-30T04:31:06.137Z,6.15
2019-03-30T04:32:06.087Z,6.14
2019-03-30T04:33:06.079Z,6.12
2019-03-30T04:34:06.094Z,6.12
2019-03-30T04:35:06.052Z,6.09
2019-03-30T04:36:06.070Z,6.09
2019-03-30T04:37:06.080Z,6.08
2019-03-30T04:38:06.100Z,6.08
2019-03-30T04:39:06.029Z,6.06
2019-03-30T04:40:05.996Z,6.08
2019-03-30T04:41:05.985Z,6.08
2019-03-30T04:42:05.987Z,6.06
2019-03-30T04:43:05.961Z,6.04
2019-03-30T04:44:06.033Z,6.06
2019-03-30T04:45:05.934Z,6.03
2019-03-30T04:46:05.970Z,6.04
2019-03-30T04:47:05.914Z,6.03
2019-03-30T04:48:05.905Z,5.99
2019-03-30T04:49:05.955Z,5.97
2019-03-30T04:50:05.929Z,5.96
2019-03-30T04:51:05.904Z,5.96
2019-03-30T04:52:05.858Z,5.96
2019-03-30T04:53:05.855Z,5.96
2019-03-30T04:54:05.875Z,5.96
2019-03-30T04:55:05.824Z,5.96
2019-03-30T04:56:05.857Z,5.96
2019-03-30T04:57:05.806Z,5.96
2019-03-30T04:58:09.066Z,5.96
2019-03-30T04:59:05.797Z,5.96
2019-03-30T05:00:05.774Z,5.94
2019-03-30T05:01:05.800Z,5.94
2019-03-30T05:02:05.754Z,5.94
2019-03-30T05:03:05.766Z,5.93
2019-03-30T05:04:05.748Z,5.91
2019-03-30T05:05:05.724Z,5.91
2019-03-30T05:06:05.704Z,5.91
2019-03-30T05:07:05.738Z,5.89
2019-03-30T05:08:05.694Z,5.86
2019-03-30T05:09:05.684Z,5.86
2019-03-30T05:10:05.664Z,5.85
2019-03-30T05:11:05.653Z,5.85
2019-03-30T05:12:05.715Z,5.83
2019-03-30T05:13:05.654Z,5.85
2019-03-30T05:14:05.624Z,5.83
2019-03-30T05:15:05.613Z,5.85
2019-03-30T05:16:05.605Z,5.86
2019-03-30T05:17:05.584Z,5.89
2019-03-30T05:18:05.623Z,5.89
2019-03-30T05:19:05.657Z,5.86
2019-03-30T05:20:05.553Z,5.82
2019-03-30T05:21:05.553Z,5.81
2019-03-30T05:22:12.615Z,5.79
2019-03-30T05:23:06.566Z,5.81
2019-03-30T05:24:05.524Z,5.79
2019-03-30T05:25:05.513Z,5.78
2019-03-30T05:26:05.517Z,5.78
2019-03-30T05:27:05.492Z,5.79
2019-03-30T05:28:05.474Z,5.79
2019-03-30T05:29:05.493Z,5.81
2019-03-30T05:30:05.452Z,5.81
2019-03-30T05:31:05.441Z,5.81
2019-03-30T05:32:05.424Z,5.81
2019-03-30T05:33:06.514Z,5.82
2019-03-30T05:34:05.413Z,5.83
2019-03-30T05:35:05.404Z,5.85
2019-03-30T05:36:05.395Z,5.85
2019-03-30T05:37:05.384Z,5.86
2019-03-30T05:38:05.371Z,5.90
2019-03-30T05:39:05.395Z,5.91
2019-03-30T05:40:05.354Z,5.94
2019-03-30T05:41:05.333Z,5.94
2019-03-30T05:42:05.350Z,5.94
2019-03-30T05:43:05.326Z,5.96
2019-03-30T05:44:05.303Z,5.97
2019-03-30T05:45:05.336Z,5.99
2019-03-30T05:46:05.286Z,6.00
2019-03-30T05:47:05.293Z,6.04
2019-03-30T05:48:05.263Z,6.04
2019-03-30T05:49:05.253Z,6.08
2019-03-30T05:50:05.235Z,6.09
2019-03-30T05:51:05.249Z,6.11
2019-03-30T05:52:05.224Z,6.14
2019-03-30T05:53:05.226Z,6.15
2019-03-30T05:54:05.205Z,6.17
2019-03-30T05:55:05.182Z,6.21
2019-03-30T05:56:05.203Z,6.25
2019-03-30T05:57:05.241Z,6.30
2019-03-30T05:58:05.144Z,6.31
2019-03-30T05:59:05.213Z,6.36
2019-03-30T06:00:05.122Z,6.38
2019-03-30T06:01:05.116Z,6.40
2019-03-30T06:02:05.153Z,6.41
2019-03-30T06:03:05.099Z,6.44
2019-03-30T06:04:05.092Z,6.52
2019-03-30T06:05:05.083Z,6.58
2019-03-30T06:06:05.063Z,6.64
2019-03-30T06:07:05.057Z,6.69
2019-03-30T06:08:05.054Z,6.74
2019-03-30T06:09:05.024Z,6.80
2019-03-30T06:10:05.024Z,6.88
2019-03-30T06:11:05.013Z,6.98
2019-03-30T06:12:05.181Z,7.07
2019-03-30T06:13:05.023Z,7.16
2019-03-30T06:14:05.023Z,7.27
2019-03-30T06:15:04.993Z,7.34
2019-03-30T06:16:04.952Z,7.43
2019-03-30T06:17:04.951Z,7.50
2019-03-30T06:18:04.934Z,7.57
2019-03-30T06:19:04.973Z,7.68
2019-03-30T06:20:04.903Z,7.77
2019-03-30T06:21:04.907Z,7.87
2019-03-30T06:22:04.882Z,7.98
2019-03-30T06:23:04.883Z,8.07
2019-03-30T06:24:04.944Z,8.18
2019-03-30T06:25:04.873Z,8.25
2019-03-30T06:26:04.880Z,8.33
2019-03-30T06:27:04.833Z,8.38
2019-03-30T06:28:04.831Z,8.48
2019-03-30T06:29:04.814Z,8.62
2019-03-30T06:30:04.865Z,8.70
2019-03-30T06:31:04.874Z,8.76
2019-03-30T06:32:04.783Z,8.84
2019-03-30T06:33:04.774Z,8.92
2019-03-30T06:34:04.794Z,8.98
2019-03-30T06:35:04.764Z,9.01
2019-03-30T06:36:04.772Z,9.08
2019-03-30T06:37:04.732Z,9.14
2019-03-30T06:38:04.724Z,9.18
2019-03-30T06:39:04.710Z,9.23
2019-03-30T06:40:04.685Z,9.28
2019-03-30T06:41:04.753Z,9.33
2019-03-30T06:42:04.672Z,9.39
2019-03-30T06:43:07.527Z,9.43
2019-03-30T06:44:04.649Z,9.47
2019-03-30T06:45:04.653Z,9.51
2019-03-30T06:46:04.633Z,9.56
2019-03-30T06:47:04.682Z,9.58
2019-03-30T06:48:04.612Z,9.64
2019-03-30T06:49:04.598Z,9.69
2019-03-30T06:50:04.604Z,9.75
2019-03-30T06:51:04.572Z,9.83
2019-03-30T06:52:04.602Z,9.89
2019-03-30T06:53:04.554Z,9.93
2019-03-30T06:54:04.553Z,10.01
2019-03-30T06:55:04.533Z,10.05
2019-03-30T06:56:04.570Z,10.12
2019-03-30T06:57:04.513Z,10.26
2019-03-30T06:58:04.494Z,10.44
2019-03-30T06:59:04.488Z,10.64
2019-03-30T07:00:04.497Z,10.85
2019-03-30T07:01:04.554Z,11.09
2019-03-30T07:02:04.484Z,11.32
2019-03-30T07:03:04.446Z,11.54
2019-03-30T07:04:04.447Z,11.75
2019-03-30T07:05:04.420Z,11.86
2019-03-30T07:06:04.417Z,11.96
2019-03-30T07:07:04.404Z,12.01
2019-03-30T07:08:04.443Z,12.13
2019-03-30T07:09:04.389Z,12.19
2019-03-30T07:10:04.369Z,12.27
2019-03-30T07:11:04.358Z,12.31
2019-03-30T07:12:04.424Z,12.37
2019-03-30T07:13:04.339Z,12.47
2019-03-30T07:14:04.365Z,12.56
2019-03-30T07:15:04.315Z,12.60
2019-03-30T07:16:04.305Z,12.71
2019-03-30T07:17:04.290Z,12.64
2019-03-30T07:18:04.278Z,12.64
2019-03-30T07:19:04.278Z,12.67
2019-03-30T07:20:04.285Z,12.71
2019-03-30T07:21:04.236Z,12.85
2019-03-30T07:22:04.226Z,12.96
2019-03-30T07:23:11.579Z,13.10
2019-03-30T07:24:05.264Z,13.05
2019-03-30T07:25:04.197Z,13.04
2019-03-30T07:26:04.248Z,13.00
2019-03-30T07:27:04.180Z,13.08
2019-03-30T07:28:04.172Z,13.22
2019-03-30T07:29:04.155Z,13.38
2019-03-30T07:30:04.149Z,13.54
2019-03-30T07:31:04.157Z,13.69
2019-03-30T07:32:04.130Z,13.81
2019-03-30T07:33:04.107Z,13.96
2019-03-30T07:34:04.097Z,14.09
2019-03-30T07:35:04.102Z,14.18
2019-03-30T07:36:04.085Z,14.20
2019-03-30T07:37:04.098Z,14.20
2019-03-30T07:38:04.057Z,14.06
2019-03-30T07:39:04.049Z,14.04
2019-03-30T07:40:04.028Z,14.20
2019-03-30T07:41:04.020Z,14.28
2019-03-30T07:42:04.118Z,14.33
2019-03-30T07:43:04.013Z,14.37
2019-03-30T07:44:04.010Z,14.32
2019-03-30T07:45:04.006Z,14.28
2019-03-30T07:46:03.969Z,14.22
2019-03-30T07:47:03.961Z,14.24
2019-03-30T07:48:03.962Z,14.25
2019-03-30T07:49:03.972Z,14.32
2019-03-30T07:50:04.014Z,14.36
2019-03-30T07:51:03.929Z,14.39
2019-03-30T07:52:03.922Z,14.35
2019-03-30T07:53:03.913Z,14.35
2019-03-30T07:54:03.880Z,14.39
2019-03-30T07:55:03.871Z,14.46
2019-03-30T07:56:08.751Z,14.60
2019-03-30T07:57:16.356Z,14.58
2019-03-30T07:58:04.893Z,14.54
2019-03-30T07:59:03.831Z,14.51
2019-03-30T08:00:03.817Z,14.57
2019-03-30T08:01:03.815Z,14.64
2019-03-30T08:02:03.848Z,14.81
2019-03-30T08:03:03.797Z,14.84
2019-03-30T08:04:03.777Z,14.91
2019-03-30T08:05:03.765Z,14.98
2019-03-30T08:06:03.753Z,14.95
2019-03-30T08:07:03.793Z,14.94
2019-03-30T08:08:03.818Z,14.98
2019-03-30T08:09:03.737Z,15.10
2019-03-30T08:10:03.740Z,15.23
2019-03-30T08:11:03.694Z,15.31
2019-03-30T08:12:03.712Z,15.32
2019-03-30T08:13:03.693Z,15.38
2019-03-30T08:14:03.665Z,15.50
2019-03-30T08:15:03.654Z,15.57
2019-03-30T08:16:03.636Z,15.68
2019-03-30T08:17:03.627Z,15.75
2019-03-30T08:18:03.658Z,15.80
2019-03-30T08:19:03.626Z,15.92
2019-03-30T08:20:03.636Z,16.05
2019-03-30T08:21:03.600Z,16.14
2019-03-30T08:22:03.577Z,16.25
2019-03-30T08:23:03.567Z,16.34
2019-03-30T08:24:03.611Z,16.41
2019-03-30T08:25:03.542Z,16.43
2019-03-30T08:26:03.530Z,16.33
2019-03-30T08:27:03.535Z,16.05
2019-03-30T08:28:03.521Z,15.84
2019-03-30T08:29:03.499Z,15.72
2019-03-30T08:30:03.522Z,15.60
2019-03-30T08:31:03.518Z,15.62
2019-03-30T08:32:03.518Z,15.54
2019-03-30T08:33:03.516Z,15.38
2019-03-30T08:34:03.441Z,15.36
2019-03-30T08:35:03.448Z,15.34
2019-03-30T08:36:03.422Z,15.44
2019-03-30T08:37:03.442Z,15.57
2019-03-30T08:38:03.412Z,15.80
2019-03-30T08:39:03.439Z,16.01
2019-03-30T08:40:03.381Z,16.21
2019-03-30T08:41:03.370Z,16.39
2019-03-30T08:42:03.414Z,16.48
2019-03-30T08:43:03.376Z,16.56
2019-03-30T08:44:03.407Z,16.66
2019-03-30T08:45:03.323Z,16.82
2019-03-30T08:46:03.402Z,16.88
2019-03-30T08:47:03.323Z,16.81
2019-03-30T08:48:03.295Z,16.52
2019-03-30T08:49:03.284Z,16.43
2019-03-30T08:50:03.352Z,16.24
2019-03-30T08:51:03.269Z,16.25
2019-03-30T08:52:03.277Z,16.39
2019-03-30T08:53:03.245Z,16.46
2019-03-30T08:54:03.233Z,16.43
2019-03-30T08:55:03.232Z,16.30
2019-03-30T08:56:03.239Z,16.25
2019-03-30T08:57:03.207Z,16.30
2019-03-30T08:58:03.189Z,16.43
2019-03-30T08:59:03.176Z,16.52
2019-03-30T09:00:03.185Z,16.63
2019-03-30T09:01:03.207Z,16.81
2019-03-30T09:02:03.153Z,17.00
2019-03-30T09:03:03.143Z,17.22
2019-03-30T09:04:03.135Z,17.41
2019-03-30T09:05:03.132Z,17.63
2019-03-30T09:06:03.113Z,17.77
2019-03-30T09:07:03.138Z,17.78
2019-03-30T09:08:03.185Z,17.92
2019-03-30T09:09:03.085Z,18.11
2019-03-30T09:10:03.067Z,18.18
2019-03-30T09:11:03.052Z,18.21
2019-03-30T09:12:03.053Z,18.21
2019-03-30T09:13:03.055Z,18.23
2019-03-30T09:14:03.020Z,18.41
2019-03-30T09:15:03.000Z,18.52
2019-03-30T09:16:03.017Z,18.62
2019-03-30T09:17:02.985Z,18.70
2019-03-30T09:18:03.056Z,18.82
2019-03-30T09:19:02.965Z,18.91
2019-03-30T09:20:03.025Z,18.98
2019-03-30T09:21:02.949Z,19.07
2019-03-30T09:22:03.043Z,19.08
2019-03-30T09:23:02.915Z,19.08
2019-03-30T09:24:09.727Z,19.13
2019-03-30T09:25:03.917Z,19.18
2019-03-30T09:26:02.899Z,19.28
2019-03-30T09:27:02.888Z,19.33
2019-03-30T09:28:02.880Z,19.18
2019-03-30T09:29:02.856Z,19.11
2019-03-30T09:30:02.928Z,19.16
2019-03-30T09:31:02.836Z,19.22
2019-03-30T09:32:13.569Z,18.98
2019-03-30T09:33:03.816Z,18.85
2019-03-30T09:34:02.818Z,18.90
2019-03-30T09:35:02.807Z,19.06
2019-03-30T09:36:02.816Z,19.19
2019-03-30T09:37:02.784Z,19.26
2019-03-30T09:38:02.775Z,19.39
2019-03-30T09:39:02.792Z,19.40
2019-03-30T09:40:02.747Z,19.39
2019-03-30T09:41:02.760Z,19.14
2019-03-30T09:42:02.721Z,18.98
2019-03-30T09:43:02.712Z,19.04
2019-03-30T09:44:02.694Z,19.11
2019-03-30T09:45:02.690Z,19.22
2019-03-30T09:46:02.719Z,19.37
2019-03-30T09:47:02.683Z,19.54
2019-03-30T09:48:02.651Z,19.74
2019-03-30T09:49:02.657Z,19.83
2019-03-30T09:50:03.056Z,19.87
2019-03-30T09:51:02.626Z,20.01
2019-03-30T09:52:02.665Z,20.17
2019-03-30T09:53:02.607Z,20.38
2019-03-30T09:54:02.594Z,20.54
2019-03-30T09:55:02.596Z,20.64
2019-03-30T09:56:02.625Z,20.73
2019-03-30T09:57:02.558Z,20.79
2019-03-30T09:58:02.559Z,20.72
2019-03-30T09:59:02.619Z,20.61
2019-03-30T10:00:02.528Z,20.58
2019-03-30T10:01:02.511Z,20.64
2019-03-30T10:02:02.555Z,20.66
2019-03-30T10:03:05.805Z,20.59
2019-03-30T10:04:02.519Z,20.48
2019-03-30T10:05:02.487Z,20.42
2019-03-30T10:06:02.500Z,20.54
2019-03-30T10:07:02.446Z,20.52
2019-03-30T10:08:02.438Z,20.51
2019-03-30T10:09:02.466Z,20.59
2019-03-30T10:10:02.417Z,20.42
2019-03-30T10:11:02.447Z,20.14
2019-03-30T10:12:02.407Z,20.08
2019-03-30T10:13:02.391Z,20.14
2019-03-30T10:14:02.374Z,20.21
2019-03-30T10:15:02.372Z,20.32
2019-03-30T10:16:02.352Z,20.32
2019-03-30T10:17:02.403Z,20.28
2019-03-30T10:18:02.331Z,20.24
2019-03-30T10:19:02.344Z,20.32
2019-03-30T10:20:04.698Z,20.31
2019-03-30T10:21:02.311Z,20.26
2019-03-30T10:22:02.348Z,20.31
2019-03-30T10:23:02.290Z,20.39
2019-03-30T10:24:02.279Z,20.54
2019-03-30T10:25:02.265Z,20.67
2019-03-30T10:26:02.242Z,20.79
2019-03-30T10:27:02.272Z,20.97
2019-03-30T10:28:02.280Z,21.10
2019-03-30T10:29:02.286Z,21.24
2019-03-30T10:30:02.214Z,21.37
2019-03-30T10:31:02.202Z,21.47
2019-03-30T10:32:02.199Z,21.52
2019-03-30T10:33:02.176Z,21.50
2019-03-30T10:34:02.165Z,21.06
2019-03-30T10:35:02.208Z,20.82
2019-03-30T10:36:02.145Z,20.51
2019-03-30T10:37:02.135Z,20.50
2019-03-30T10:38:02.130Z,20.69
2019-03-30T10:39:02.140Z,20.92
2019-03-30T10:40:02.098Z,21.03
2019-03-30T10:41:02.127Z,21.06
2019-03-30T10:42:02.097Z,21.21
2019-03-30T10:43:02.107Z,20.92
2019-03-30T10:44:02.057Z,20.85
2019-03-30T10:45:02.081Z,20.88
2019-03-30T10:46:02.049Z,20.80
2019-03-30T10:47:02.092Z,20.77
2019-03-30T10:48:02.009Z,20.92
2019-03-30T10:49:02.015Z,21.14
2019-03-30T10:50:02.006Z,21.31
2019-03-30T10:51:01.996Z,21.46
2019-03-30T10:52:01.981Z,21.62
2019-03-30T10:53:01.992Z,21.75
2019-03-30T10:54:01.991Z,21.90
2019-03-30T10:55:01.942Z,21.98
2019-03-30T10:56:02.071Z,21.98
2019-03-30T10:57:01.936Z,22.06
2019-03-30T10:58:01.963Z,22.03
2019-03-30T10:59:01.922Z,21.79
2019-03-30T11:00:01.885Z,21.69
2019-03-30T11:01:01.897Z,21.59
2019-03-30T11:02:01.884Z,21.59
2019-03-30T11:03:01.857Z,21.69
2019-03-30T11:04:01.926Z,21.75
2019-03-30T11:05:01.845Z,21.88
2019-03-30T11:06:01.828Z,21.99
2019-03-30T11:07:01.839Z,22.05
2019-03-30T11:08:01.808Z,21.91
2019-03-30T11:09:01.796Z,21.98
2019-03-30T11:10:01.807Z,22.06
2019-03-30T11:11:01.858Z,22.14
2019-03-30T11:12:01.764Z,22.20
2019-03-30T11:13:01.762Z,22.22
2019-03-30T11:14:01.747Z,22.02
2019-03-30T11:15:01.756Z,21.80
2019-03-30T11:16:01.740Z,21.54
2019-03-30T11:17:01.749Z,21.44
2019-03-30T11:18:01.709Z,21.50
2019-03-30T11:19:01.690Z,21.54
2019-03-30T11:20:01.693Z,21.61
2019-03-30T11:21:01.720Z,21.62
2019-03-30T11:22:03.151Z,21.61
2019-03-30T11:23:01.656Z,21.62
2019-03-30T11:24:01.641Z,21.59
2019-03-30T11:25:07.692Z,21.50
2019-03-30T11:26:02.692Z,21.46
2019-03-30T11:27:01.614Z,21.38
2019-03-30T11:28:01.593Z,21.25
2019-03-30T11:29:01.583Z,21.17
2019-03-30T11:30:01.583Z,21.13
2019-03-30T11:31:03.892Z,21.03
2019-03-30T11:32:01.584Z,20.85
2019-03-30T11:33:01.545Z,20.62
2019-03-30T11:34:01.535Z,20.61
2019-03-30T11:35:01.526Z,20.57
2019-03-30T11:36:01.504Z,20.52
2019-03-30T11:37:01.525Z,20.51
2019-03-30T11:38:01.496Z,20.47
2019-03-30T11:39:01.515Z,20.33
2019-03-30T11:40:01.466Z,20.32
2019-03-30T11:41:01.455Z,20.36
2019-03-30T11:42:01.446Z,20.39
2019-03-30T11:43:01.428Z,20.38
2019-03-30T11:44:01.475Z,20.39
2019-03-30T11:45:01.448Z,20.38
2019-03-30T11:46:01.421Z,20.38
2019-03-30T11:47:01.396Z,20.36
2019-03-30T11:48:01.389Z,20.28
2019-03-30T11:49:01.407Z,20.24
2019-03-30T11:50:01.369Z,20.26
2019-03-30T11:51:01.357Z,20.28
2019-03-30T11:52:01.352Z,20.29
2019-03-30T11:53:01.333Z,20.32
2019-03-30T11:54:01.361Z,20.29
2019-03-30T11:55:01.311Z,20.17
2019-03-30T11:56:01.330Z,20.03
2019-03-30T11:57:01.291Z,19.99
2019-03-30T11:58:01.281Z,19.98
2019-03-30T11:59:01.338Z,20.02
2019-03-30T12:00:01.267Z,20.02
2019-03-30T12:01:01.255Z,19.98
2019-03-30T12:02:01.231Z,19.98
2019-03-30T12:03:01.235Z,20.01
2019-03-30T12:04:01.266Z,20.02
2019-03-30T12:05:01.192Z,19.92
2019-03-30T12:06:01.193Z,19.77
2019-03-30T12:07:01.172Z,19.69
2019-03-30T12:08:01.227Z,19.73
2019-03-30T12:09:01.164Z,19.76
2019-03-30T12:10:01.148Z,19.86
2019-03-30T12:11:01.204Z,19.91
2019-03-30T12:12:01.126Z,19.92
2019-03-30T12:13:01.144Z,19.96
2019-03-30T12:14:01.136Z,19.96
2019-03-30T12:15:01.100Z,19.88
2019-03-30T12:16:01.098Z,19.78
2019-03-30T12:17:01.065Z,19.69
2019-03-30T12:18:01.118Z,19.59
2019-03-30T12:19:01.054Z,19.50
2019-03-30T12:20:01.048Z,19.55
2019-03-30T12:21:01.076Z,19.62
2019-03-30T12:22:01.025Z,19.74
2019-03-30T12:23:01.007Z,19.88
2019-03-30T12:24:01.009Z,20.02
2019-03-30T12:25:00.998Z,20.14
2019-03-30T12:26:00.979Z,20.28
2019-03-30T12:27:01.021Z,20.42
2019-03-30T12:28:00.959Z,20.57
2019-03-30T12:29:00.955Z,20.70
2019-03-30T12:30:00.928Z,20.92
2019-03-30T12:31:00.929Z,20.99
2019-03-30T12:32:00.913Z,21.12
2019-03-30T12:33:01.005Z,21.24
2019-03-30T12:34:00.880Z,21.38
2019-03-30T12:35:00.918Z,21.44
2019-03-30T12:36:00.901Z,21.42
2019-03-30T12:37:00.852Z,21.35
2019-03-30T12:38:00.892Z,21.37
2019-03-30T12:39:00.842Z,21.29
2019-03-30T12:40:00.834Z,21.34
2019-03-30T12:41:00.812Z,21.52
2019-03-30T12:42:00.809Z,21.67
2019-03-30T12:43:00.794Z,21.80
2019-03-30T12:44:00.794Z,21.82
2019-03-30T12:45:00.776Z,21.80
2019-03-30T12:46:00.763Z,21.88
2019-03-30T12:47:00.756Z,22.00
2019-03-30T12:48:00.775Z,22.10
2019-03-30T12:49:00.765Z,22.20
2019-03-30T12:50:00.738Z,22.22
2019-03-30T12:51:00.715Z,22.22
2019-03-30T12:52:00.709Z,22.17
2019-03-30T12:53:00.684Z,22.06
2019-03-30T12:54:00.709Z,21.90
2019-03-30T12:55:00.675Z,21.83
2019-03-30T12:56:00.656Z,21.83
2019-03-30T12:57:00.648Z,21.91
2019-03-30T12:58:00.628Z,22.02
2019-03-30T12:59:00.619Z,22.22
2019-03-30T13:00:00.659Z,22.30
2019-03-30T13:01:00.608Z,22.21
2019-03-30T13:02:00.589Z,22.15
2019-03-30T13:03:00.579Z,22.10
2019-03-30T13:04:00.634Z,22.00
2019-03-30T13:05:00.582Z,21.74
2019-03-30T13:06:00.551Z,21.75